Time;durP1;ratioP1;P1;durP2;ratioP2;P2;SDS_P1;SDS_P2;PMS_P1;PMS_P2;Temp;Humidity;BMP_temperature;BMP_pressure;BME280_temperature;BME280_humidity;BME280_pressure;Samples;Min_cycle;Max_cycle;Signal;HPM_P1;HPM_P2
2022/11/30 00:01:27;;;;;;;16.63;10.13;;;5.80;99.90;;;;;;5051350;28;20578;-67
2022/11/30 00:03:56;;;;;;;18.75;11.52;;;5.90;99.90;;;;;;5052018;28;20702;-66
2022/11/30 00:06:24;;;;;;;17.85;11.35;;;5.90;99.90;;;;;;5052129;28;20222;-66
2022/11/30 00:08:53;;;;;;;20.13;12.48;;;5.90;99.90;;;;;;5051991;28;20206;-66
2022/11/30 00:11:22;;;;;;;23.10;13.07;;;5.90;99.90;;;;;;5051435;28;20691;-67
2022/11/30 00:13:50;;;;;;;17.60;10.48;;;5.90;99.90;;;;;;5052041;28;20228;-67
2022/11/30 00:16:16;;;;;;;23.60;11.85;;;5.90;99.90;;;;;;5051032;28;20229;-67
2022/11/30 00:18:43;;;;;;;22.60;11.32;;;5.80;99.90;;;;;;5052255;28;20208;-66
2022/11/30 00:21:13;;;;;;;17.83;10.57;;;5.80;99.90;;;;;;5051211;28;20201;-67
2022/11/30 00:23:41;;;;;;;20.13;11.45;;;5.80;99.90;;;;;;5051950;28;20689;-67
2022/11/30 00:26:10;;;;;;;21.42;12.02;;;5.80;99.90;;;;;;5051776;28;20597;-67
2022/11/30 00:28:38;;;;;;;18.30;10.70;;;5.80;99.90;;;;;;5051646;28;20202;-67
2022/11/30 00:31:07;;;;;;;20.48;13.23;;;5.80;99.90;;;;;;5050761;28;20233;-67
2022/11/30 00:33:35;;;;;;;19.80;10.98;;;5.80;99.90;;;;;;5051709;28;20221;-67
2022/11/30 00:36:04;;;;;;;18.98;11.95;;;5.80;99.90;;;;;;5051621;28;20229;-67
2022/11/30 00:38:33;;;;;;;21.20;12.57;;;5.80;99.90;;;;;;5050243;28;20574;-67
2022/11/30 00:41:00;;;;;;;24.67;12.35;;;5.80;99.90;;;;;;5050333;28;20217;-67
2022/11/30 00:43:27;;;;;;;22.13;12.20;;;5.80;99.90;;;;;;5050959;28;20205;-67
2022/11/30 00:45:54;;;;;;;20.80;11.95;;;5.80;99.90;;;;;;5050977;28;20233;-67
2022/11/30 00:48:21;;;;;;;21.85;11.77;;;5.70;99.90;;;;;;5050952;28;20206;-67
2022/11/30 00:50:48;;;;;;;18.83;11.05;;;5.80;99.90;;;;;;5050323;28;20213;-67
2022/11/30 00:53:15;;;;;;;18.70;11.77;;;5.70;99.90;;;;;;5109952;22;20232;-70
2022/11/30 00:55:44;;;;;;;18.02;11.45;;;5.70;99.90;;;;;;5031850;28;20221;-70
2022/11/30 00:58:11;;;;;;;21.17;10.73;;;5.70;99.90;;;;;;5031845;28;20582;-69
2022/11/30 01:00:38;;;;;;;21.52;12.35;;;5.70;99.90;;;;;;5031135;28;20219;-70
2022/11/30 01:03:05;;;;;;;19.75;10.75;;;5.70;99.90;;;;;;5028212;28;20206;-69
2022/11/30 01:05:33;;;;;;;19.00;11.63;;;5.60;99.90;;;;;;5012687;28;20601;-70
2022/11/30 01:08:00;;;;;;;16.50;10.68;;;5.70;99.90;;;;;;5014015;28;20232;-70
2022/11/30 01:10:27;;;;;;;17.83;10.75;;;5.70;99.90;;;;;;5012831;28;20211;-70
2022/11/30 01:12:55;;;;;;;20.85;12.65;;;5.70;99.90;;;;;;5012703;28;20206;-70
2022/11/30 01:15:22;;;;;;;19.90;11.15;;;5.70;99.90;;;;;;5011078;28;20242;-70
2022/11/30 01:17:49;;;;;;;18.77;10.82;;;5.70;99.90;;;;;;5011640;28;20208;-69
2022/11/30 01:20:16;;;;;;;16.50;10.73;;;5.70;99.90;;;;;;5010947;28;20249;-70
2022/11/30 01:22:43;;;;;;;17.90;11.25;;;5.70;99.90;;;;;;5011218;28;20218;-70
2022/11/30 01:25:10;;;;;;;15.43;10.82;;;5.70;99.90;;;;;;5011069;28;20219;-69
2022/11/30 01:27:37;;;;;;;17.38;10.80;;;5.70;99.90;;;;;;5011379;28;20215;-69
2022/11/30 01:30:06;;;;;;;17.95;11.52;;;5.70;99.90;;;;;;5011185;28;20205;-69
2022/11/30 01:32:33;;;;;;;19.30;11.10;;;5.70;99.90;;;;;;5010663;28;20670;-69
2022/11/30 01:35:00;;;;;;;17.90;10.82;;;5.70;99.90;;;;;;5011034;28;20231;-70
2022/11/30 01:37:28;;;;;;;24.30;12.90;;;5.70;99.90;;;;;;5010961;28;20199;-70
2022/11/30 01:39:55;;;;;;;18.92;10.57;;;5.60;99.90;;;;;;5011105;28;20218;-70
2022/11/30 01:42:22;;;;;;;21.13;10.50;;;5.70;99.90;;;;;;5010315;28;20215;-69
2022/11/30 01:44:54;;;;;;;19.70;10.45;;;5.70;99.90;;;;;;5010852;28;20227;-69
2022/11/30 01:47:28;;;;;;;15.35;10.73;;;5.70;99.90;;;;;;5010918;28;20210;-70
2022/11/30 01:50:03;;;;;;;17.75;10.57;;;5.70;99.90;;;;;;5011091;28;20210;-69
2022/11/30 01:52:35;;;;;;;15.38;9.68;;;5.70;99.90;;;;;;5010311;28;20645;-69
2022/11/30 01:55:11;;;;;;;17.17;10.07;;;5.70;99.90;;;;;;5010880;28;20230;-70
2022/11/30 01:57:40;;;;;;;14.18;9.38;;;5.70;99.90;;;;;;5011068;28;20592;-69
2022/11/30 02:00:11;;;;;;;15.70;8.90;;;5.70;99.90;;;;;;5010559;28;20565;-69
2022/11/30 02:02:47;;;;;;;15.27;9.32;;;5.70;99.90;;;;;;5010599;28;20226;-69
2022/11/30 02:05:15;;;;;;;18.48;11.00;;;5.70;99.90;;;;;;5025754;28;20218;-70
2022/11/30 02:07:43;;;;;;;13.23;8.85;;;5.70;99.90;;;;;;5030461;28;20210;-70
2022/11/30 02:10:15;;;;;;;15.80;9.98;;;5.60;99.90;;;;;;5030158;28;20231;-69
2022/11/30 02:12:59;;;;;;;16.98;10.05;;;5.60;99.90;;;;;;5030175;28;20234;-69
2022/11/30 02:15:31;;;;;;;14.65;9.93;;;5.60;99.90;;;;;;5030018;28;20332;-69
2022/11/30 02:18:08;;;;;;;16.85;9.13;;;5.60;99.90;;;;;;5030585;28;20220;-70
2022/11/30 02:20:46;;;;;;;18.20;11.50;;;5.60;99.90;;;;;;5029684;28;20206;-69
2022/11/30 02:23:55;;;;;;;16.17;9.02;;;5.60;99.90;;;;;;5030367;28;20204;-69
2022/11/30 02:26:46;;;;;;;15.95;9.30;;;5.60;99.90;;;;;;4994500;28;20238;-70
2022/11/30 02:29:21;;;;;;;19.80;10.45;;;5.60;99.90;;;;;;5030582;28;20557;-70
2022/11/30 02:31:54;;;;;;;13.50;9.45;;;5.60;99.90;;;;;;5030701;28;20206;-70
2022/11/30 02:34:25;;;;;;;15.88;9.82;;;5.60;99.90;;;;;;5030834;28;20881;-69
2022/11/30 02:36:52;;;;;;;15.90;10.43;;;5.60;99.90;;;;;;5031251;28;20206;-69
2022/11/30 02:39:21;;;;;;;13.25;8.55;;;5.60;99.90;;;;;;5030565;28;20708;-69
2022/11/30 02:41:47;;;;;;;16.33;9.20;;;5.60;99.90;;;;;;5030545;28;20203;-69
2022/11/30 02:44:16;;;;;;;17.23;9.25;;;5.60;99.90;;;;;;5030626;28;20195;-69
2022/11/30 02:46:59;;;;;;;18.58;10.55;;;5.60;99.90;;;;;;5031278;28;20214;-69
2022/11/30 02:49:32;;;;;;;16.13;9.70;;;5.70;99.90;;;;;;5030572;28;20218;-69
2022/11/30 02:52:00;;;;;;;16.98;9.13;;;5.70;99.90;;;;;;5030365;28;20217;-69
2022/11/30 02:54:27;;;;;;;19.02;10.40;;;5.70;99.90;;;;;;5030817;28;20238;-69
2022/11/30 02:56:54;;;;;;;16.92;9.68;;;5.70;99.90;;;;;;5031490;28;20779;-69
2022/11/30 02:59:22;;;;;;;14.73;8.65;;;5.70;99.90;;;;;;5030697;28;20202;-69
2022/11/30 03:01:49;;;;;;;15.63;9.05;;;5.60;99.90;;;;;;5033452;28;20236;-69
2022/11/30 03:04:15;;;;;;;14.48;9.65;;;5.70;99.90;;;;;;5034164;28;20574;-69
2022/11/30 03:06:42;;;;;;;15.70;9.55;;;5.60;99.90;;;;;;5035238;28;20202;-70
2022/11/30 03:09:09;;;;;;;12.40;8.50;;;5.60;99.90;;;;;;5034921;28;20217;-69
2022/11/30 03:11:36;;;;;;;14.88;9.13;;;5.60;99.90;;;;;;5033913;28;20203;-69
2022/11/30 03:14:03;;;;;;;16.27;8.73;;;5.60;99.90;;;;;;5034032;28;20713;-69
2022/11/30 03:16:31;;;;;;;12.88;8.63;;;5.60;99.90;;;;;;5034166;28;20203;-69
2022/11/30 03:18:59;;;;;;;12.15;8.98;;;5.60;99.90;;;;;;5034141;28;20214;-69
2022/11/30 03:21:26;;;;;;;14.35;8.40;;;5.60;99.90;;;;;;5033286;28;20583;-69
2022/11/30 03:23:53;;;;;;;12.05;8.45;;;5.60;99.90;;;;;;5034042;28;20202;-69
2022/11/30 03:26:19;;;;;;;13.68;8.63;;;5.70;99.90;;;;;;5033491;28;20222;-69
2022/11/30 03:28:46;;;;;;;12.27;8.02;;;5.70;99.90;;;;;;5033816;28;20597;-68
2022/11/30 03:31:13;;;;;;;17.45;9.27;;;5.70;99.90;;;;;;5032686;28;20199;-69
2022/11/30 03:33:44;;;;;;;19.60;9.43;;;5.70;99.90;;;;;;5033513;28;20676;-69
2022/11/30 03:36:11;;;;;;;13.55;7.97;;;5.70;99.90;;;;;;5033306;28;20314;-69
2022/11/30 03:38:39;;;;;;;17.90;8.57;;;5.70;99.90;;;;;;5033497;28;20206;-69
2022/11/30 03:41:07;;;;;;;12.30;7.88;;;5.70;99.90;;;;;;5032709;28;20583;-69
2022/11/30 03:43:34;;;;;;;13.48;8.77;;;5.70;99.90;;;;;;5033533;28;20209;-69
2022/11/30 03:46:01;;;;;;;12.45;8.30;;;5.70;99.90;;;;;;5033228;28;20603;-69
2022/11/30 03:48:28;;;;;;;12.73;7.85;;;5.70;99.90;;;;;;5033238;28;20203;-68
2022/11/30 03:50:56;;;;;;;12.25;7.90;;;5.70;99.90;;;;;;5032392;28;20202;-69
2022/11/30 03:53:25;;;;;;;10.55;7.32;;;5.70;99.90;;;;;;5033001;28;20218;-69
2022/11/30 03:55:53;;;;;;;10.57;7.45;;;5.70;99.90;;;;;;5032697;28;20227;-69
2022/11/30 03:58:19;;;;;;;13.32;8.60;;;5.60;99.90;;;;;;5033259;28;20202;-69
2022/11/30 04:00:46;;;;;;;12.25;7.05;;;5.70;99.90;;;;;;5032405;28;20202;-68
2022/11/30 04:03:13;;;;;;;9.93;7.47;;;5.70;99.90;;;;;;5032974;28;20213;-69
2022/11/30 04:05:39;;;;;;;12.63;7.65;;;5.70;99.90;;;;;;5032869;28;20230;-69
2022/11/30 04:08:07;;;;;;;12.20;8.13;;;5.70;99.90;;;;;;5032666;28;20206;-69
2022/11/30 04:10:34;;;;;;;10.07;6.88;;;5.70;99.90;;;;;;5031880;28;20670;-69
2022/11/30 04:13:01;;;;;;;11.57;7.40;;;5.70;99.90;;;;;;5031473;28;20204;-69
2022/11/30 04:15:28;;;;;;;9.20;6.18;;;5.70;99.90;;;;;;5032247;28;20710;-69
2022/11/30 04:17:54;;;;;;;14.23;7.57;;;5.70;99.90;;;;;;5032490;28;20210;-69
2022/11/30 04:20:21;;;;;;;11.75;7.20;;;5.70;99.90;;;;;;5032027;28;20332;-69
2022/11/30 04:22:48;;;;;;;17.42;9.13;;;5.70;99.90;;;;;;5032397;28;20206;-68
2022/11/30 04:25:16;;;;;;;14.10;9.73;;;5.70;99.90;;;;;;5032431;28;20226;-70
2022/11/30 04:27:45;;;;;;;10.10;7.78;;;5.70;99.90;;;;;;5033397;28;20206;-68
2022/11/30 04:30:13;;;;;;;12.50;7.07;;;5.60;99.90;;;;;;5032007;28;20605;-69
2022/11/30 04:32:40;;;;;;;10.18;7.55;;;5.70;99.90;;;;;;5032045;28;20694;-69
2022/11/30 04:35:07;;;;;;;9.48;6.65;;;5.70;99.90;;;;;;5031725;28;20237;-69
2022/11/30 04:37:34;;;;;;;10.10;7.80;;;5.60;99.90;;;;;;5032261;28;20206;-69
2022/11/30 04:40:01;;;;;;;9.07;6.13;;;5.70;99.90;;;;;;5031675;28;20202;-68
2022/11/30 04:42:29;;;;;;;8.32;5.50;;;5.60;99.90;;;;;;5031993;28;20376;-69
2022/11/30 04:44:56;;;;;;;10.48;7.40;;;5.60;99.90;;;;;;5031741;28;20254;-69
2022/11/30 04:47:22;;;;;;;14.77;6.65;;;5.70;99.90;;;;;;5031936;28;20202;-69
2022/11/30 04:49:49;;;;;;;10.15;6.13;;;5.60;99.90;;;;;;5031777;28;20210;-68
2022/11/30 04:52:16;;;;;;;11.82;6.13;;;5.60;99.90;;;;;;5031231;28;20214;-69
2022/11/30 04:54:43;;;;;;;8.90;6.90;;;5.70;99.90;;;;;;5031728;28;20233;-68
2022/11/30 04:57:09;;;;;;;8.90;6.38;;;5.60;99.90;;;;;;5031697;28;20210;-69
2022/11/30 04:59:37;;;;;;;10.60;6.68;;;5.70;99.90;;;;;;5031925;28;20218;-69
2022/11/30 05:02:04;;;;;;;11.25;6.97;;;5.60;99.90;;;;;;5030985;28;20708;-69
2022/11/30 05:04:31;;;;;;;9.65;6.03;;;5.70;99.90;;;;;;5032456;28;20567;-69
2022/11/30 05:06:58;;;;;;;9.35;6.95;;;5.60;99.90;;;;;;5032211;28;21074;-70
2022/11/30 05:09:24;;;;;;;9.55;6.78;;;5.60;99.90;;;;;;5032143;28;20199;-69
2022/11/30 05:11:51;;;;;;;11.10;6.40;;;5.60;99.90;;;;;;5031180;28;20206;-69
2022/11/30 05:14:18;;;;;;;7.80;5.40;;;5.70;99.90;;;;;;5032141;28;20206;-69
2022/11/30 05:16:48;;;;;;;11.38;7.47;;;5.70;99.90;;;;;;5031933;28;20215;-69
2022/11/30 05:19:15;;;;;;;12.38;7.20;;;5.60;99.90;;;;;;5031868;28;20206;-69
2022/11/30 05:21:42;;;;;;;11.00;6.90;;;5.60;99.90;;;;;;5031211;28;20199;-69
2022/11/30 05:24:09;;;;;;;9.45;6.57;;;5.70;99.90;;;;;;5031475;28;20203;-69
2022/11/30 05:26:36;;;;;;;10.50;6.07;;;5.60;99.90;;;;;;5031788;28;20205;-69
2022/11/30 05:29:03;;;;;;;7.63;6.78;;;5.60;99.90;;;;;;5031415;28;20198;-69
2022/11/30 05:31:30;;;;;;;9.63;6.15;;;5.70;99.90;;;;;;5030767;28;20198;-69
2022/11/30 05:33:58;;;;;;;7.95;5.55;;;5.70;99.90;;;;;;5031424;28;20199;-69
2022/11/30 05:36:25;;;;;;;9.55;6.22;;;5.70;99.90;;;;;;5031848;28;20233;-69
2022/11/30 05:38:52;;;;;;;8.55;6.13;;;5.70;99.90;;;;;;5031586;28;20578;-69
2022/11/30 05:41:19;;;;;;;7.93;5.65;;;5.70;99.90;;;;;;5031101;28;20225;-68
2022/11/30 05:43:45;;;;;;;8.68;5.82;;;5.70;99.90;;;;;;5031519;28;20550;-69
2022/11/30 05:46:12;;;;;;;9.25;6.05;;;5.70;99.90;;;;;;5031049;28;20219;-69
2022/11/30 05:48:39;;;;;;;8.32;6.75;;;5.70;99.90;;;;;;5031301;28;20210;-69
2022/11/30 05:51:09;;;;;;;8.43;6.20;;;5.70;99.90;;;;;;5030374;28;20219;-69
2022/11/30 05:53:36;;;;;;;10.07;7.10;;;5.70;99.90;;;;;;5031183;28;20210;-69
2022/11/30 05:56:04;;;;;;;9.63;7.15;;;5.70;99.90;;;;;;5030948;28;20229;-69
2022/11/30 05:58:31;;;;;;;9.18;7.75;;;5.70;99.90;;;;;;5031835;28;20202;-69
2022/11/30 06:00:57;;;;;;;9.55;6.60;;;5.70;99.90;;;;;;5030263;28;20199;-69
2022/11/30 06:03:24;;;;;;;10.07;6.70;;;5.70;99.90;;;;;;5031322;28;20701;-69
2022/11/30 06:05:51;;;;;;;11.45;7.15;;;5.70;99.90;;;;;;5031221;28;20230;-69
2022/11/30 06:08:19;;;;;;;10.70;6.93;;;5.70;99.90;;;;;;5031385;28;20213;-69
2022/11/30 06:10:46;;;;;;;11.13;6.95;;;5.70;99.90;;;;;;5030434;28;20203;-69
2022/11/30 06:13:13;;;;;;;11.75;7.05;;;5.70;99.90;;;;;;5030956;28;20210;-69
2022/11/30 06:15:40;;;;;;;14.80;7.75;;;5.70;99.90;;;;;;5030746;28;20233;-69
2022/11/30 06:18:10;;;;;;;11.77;7.47;;;5.70;99.90;;;;;;5030678;28;20233;-68
2022/11/30 06:20:37;;;;;;;11.50;7.60;;;5.70;99.90;;;;;;5030268;28;20559;-69
2022/11/30 06:23:04;;;;;;;12.95;7.53;;;5.70;99.90;;;;;;5030663;28;20207;-69
2022/11/30 06:25:32;;;;;;;9.90;7.43;;;5.70;99.90;;;;;;5032204;28;20219;-69
2022/11/30 06:27:59;;;;;;;10.13;7.10;;;5.70;99.90;;;;;;5031377;28;20209;-69
2022/11/30 06:30:26;;;;;;;11.95;7.22;;;5.60;99.90;;;;;;5031241;28;20206;-69
2022/11/30 06:32:52;;;;;;;9.93;6.47;;;5.70;99.90;;;;;;5031404;28;20214;-68
2022/11/30 06:35:19;;;;;;;10.65;7.10;;;5.60;99.90;;;;;;5032071;28;20230;-69
2022/11/30 06:37:46;;;;;;;11.52;7.53;;;5.70;99.90;;;;;;5034950;28;20203;-68
2022/11/30 06:40:14;;;;;;;9.82;6.68;;;5.70;99.90;;;;;;5035016;28;20202;-68
2022/11/30 06:42:42;;;;;;;9.43;6.43;;;5.70;99.90;;;;;;5034480;28;20713;-68
2022/11/30 06:45:09;;;;;;;10.38;6.85;;;5.70;99.90;;;;;;5034607;28;20221;-69
2022/11/30 06:47:36;;;;;;;12.77;7.90;;;5.70;99.90;;;;;;5034361;28;20202;-70
2022/11/30 06:50:04;;;;;;;10.88;6.80;;;5.70;99.90;;;;;;5034333;28;20233;-69
2022/11/30 06:54:58;;;;;;;11.65;7.20;;;5.70;99.90;;;;;;5009147;28;20231;-68
2022/11/30 06:57:27;;;;;;;10.73;7.60;;;5.70;99.90;;;;;;5014065;28;20202;-68
2022/11/30 06:59:55;;;;;;;14.25;7.70;;;5.80;99.90;;;;;;5013870;28;20218;-68
2022/11/30 07:02:22;;;;;;;12.93;7.22;;;5.80;99.90;;;;;;5013307;28;20210;-68
2022/11/30 07:04:49;;;;;;;11.82;7.82;;;5.80;99.90;;;;;;5014020;28;20639;-68
2022/11/30 07:07:16;;;;;;;12.80;7.35;;;5.80;99.90;;;;;;5013701;28;20297;-68
2022/11/30 07:09:43;;;;;;;8.32;6.70;;;5.80;99.90;;;;;;5013695;28;20207;-67
2022/11/30 07:12:09;;;;;;;11.18;7.38;;;5.80;99.90;;;;;;5013595;28;20214;-67
2022/11/30 07:14:36;;;;;;;12.90;7.95;;;5.80;99.90;;;;;;5016042;28;20227;-68
2022/11/30 07:17:04;;;;;;;13.98;9.13;;;5.80;99.90;;;;;;5013670;28;20238;-68
2022/11/30 07:19:33;;;;;;;13.45;7.55;;;5.80;99.90;;;;;;5014161;28;20207;-69
2022/11/30 07:21:59;;;;;;;12.52;7.88;;;5.80;99.90;;;;;;5013338;28;20225;-69
2022/11/30 07:27:10;;;;;;;13.27;7.28;;;5.80;99.90;;;;;;5013349;28;20202;-70
2022/11/30 07:29:37;;;;;;;15.07;8.25;;;5.90;99.90;;;;;;5013474;28;20585;-69
2022/11/30 07:32:06;;;;;;;13.60;7.80;;;5.90;99.90;;;;;;5012892;28;20189;-70
2022/11/30 07:34:33;;;;;;;11.35;8.23;;;5.90;99.90;;;;;;5013514;28;20223;-69
2022/11/30 07:36:59;;;;;;;12.75;8.40;;;5.80;99.90;;;;;;5013801;28;20602;-68
2022/11/30 07:39:26;;;;;;;12.23;7.63;;;5.90;99.90;;;;;;5013352;28;20218;-68
2022/11/30 07:41:53;;;;;;;11.05;8.02;;;5.90;99.90;;;;;;5013539;28;20203;-69
2022/11/30 07:44:20;;;;;;;15.32;8.98;;;5.90;99.90;;;;;;5013438;28;20230;-69
2022/11/30 07:46:46;;;;;;;11.95;8.18;;;5.90;99.90;;;;;;5014663;28;20214;-68
2022/11/30 07:49:14;;;;;;;14.88;8.07;;;5.90;99.90;;;;;;5013602;28;20231;-69
2022/11/30 07:51:41;;;;;;;10.38;6.68;;;5.90;99.90;;;;;;5013302;28;20221;-68
2022/11/30 07:54:08;;;;;;;15.45;9.50;;;5.80;99.90;;;;;;5014624;28;20207;-68
2022/11/30 07:56:35;;;;;;;13.00;8.68;;;5.80;99.90;;;;;;5015155;28;20238;-69
2022/11/30 07:59:02;;;;;;;12.82;7.78;;;5.70;99.90;;;;;;5013988;28;20691;-69
2022/11/30 08:01:31;;;;;;;15.38;8.30;;;5.70;99.90;;;;;;5012743;28;20231;-69
2022/11/30 08:03:58;;;;;;;13.65;8.52;;;5.70;99.90;;;;;;5013397;28;20203;-69
2022/11/30 08:06:28;;;;;;;12.95;7.28;;;5.80;99.90;;;;;;5015192;28;20229;-68
2022/11/30 08:08:57;;;;;;;13.23;8.23;;;5.90;99.90;;;;;;5014104;28;20218;-67
2022/11/30 08:11:26;;;;;;;14.73;9.40;;;5.90;99.90;;;;;;5012552;28;20206;-68
2022/11/30 08:13:53;;;;;;;13.07;8.40;;;5.90;99.90;;;;;;5013345;28;20220;-67
2022/11/30 08:16:22;;;;;;;12.43;8.40;;;5.90;99.90;;;;;;5013883;28;20235;-67
2022/11/30 08:18:49;;;;;;;14.98;8.35;;;5.80;99.90;;;;;;5013165;28;20272;-68
2022/11/30 08:21:17;;;;;;;15.57;8.95;;;5.80;99.90;;;;;;5012189;28;20210;-67
2022/11/30 08:23:48;;;;;;;15.73;8.93;;;5.70;99.90;;;;;;5006300;28;20202;-67
2022/11/30 08:26:17;;;;;;;15.90;9.50;;;5.70;99.90;;;;;;4992159;28;20215;-68
2022/11/30 08:28:46;;;;;;;15.15;8.63;;;5.70;99.90;;;;;;4993938;28;20207;-69
2022/11/30 08:31:15;;;;;;;14.55;8.77;;;5.80;99.90;;;;;;5019798;22;20735;-67
2022/11/30 08:33:42;;;;;;;14.43;7.70;;;5.90;99.90;;;;;;5031889;28;20211;-67
2022/11/30 08:36:10;;;;;;;15.50;8.93;;;6.00;99.90;;;;;;5031957;28;20313;-67
2022/11/30 08:38:38;;;;;;;19.30;9.45;;;6.10;99.90;;;;;;5032347;28;20207;-66
2022/11/30 08:41:08;;;;;;;15.23;9.20;;;6.10;99.90;;;;;;5029826;28;20205;-67
2022/11/30 08:43:35;;;;;;;16.30;9.15;;;6.10;99.90;;;;;;5031408;28;20669;-67
2022/11/30 08:48:30;;;;;;;16.05;8.20;;;6.20;99.90;;;;;;5048097;28;20300;-66
2022/11/30 08:50:59;;;;;;;15.88;9.70;;;6.30;99.90;;;;;;5050979;28;20198;-67
2022/11/30 08:53:26;;;;;;;17.02;9.32;;;6.30;99.90;;;;;;5051632;28;20209;-67
2022/11/30 08:55:56;;;;;;;16.48;9.75;;;6.30;99.90;;;;;;5036368;28;20284;-66
2022/11/30 08:58:24;;;;;;;13.40;8.95;;;6.30;99.90;;;;;;5031121;28;20202;-68
2022/11/30 09:00:51;;;;;;;15.60;8.20;;;6.30;99.90;;;;;;5031096;28;20202;-67
2022/11/30 09:03:18;;;;;;;14.98;8.85;;;6.40;99.90;;;;;;5030948;28;20202;-68
2022/11/30 09:05:45;;;;;;;13.90;7.53;;;6.40;99.90;;;;;;5031646;28;20237;-67
2022/11/30 09:08:12;;;;;;;17.27;8.98;;;6.50;99.90;;;;;;5031776;28;20202;-67
2022/11/30 09:10:41;;;;;;;13.38;8.38;;;6.50;99.90;;;;;;5032666;28;20206;-69
2022/11/30 09:15:45;;;;;;;15.02;7.80;;;6.60;99.90;;;;;;5003557;22;20238;-70
2022/11/30 09:18:12;;;;;;;10.50;7.43;;;6.70;99.90;;;;;;4990595;28;20679;-69
2022/11/30 09:20:39;;;;;;;18.48;8.18;;;6.70;99.90;;;;;;4991162;28;20294;-69
2022/11/30 09:23:06;;;;;;;13.13;7.82;;;6.70;99.90;;;;;;4991279;28;20215;-69
2022/11/30 09:25:32;;;;;;;11.60;6.75;;;6.80;99.90;;;;;;4991638;28;20587;-69
2022/11/30 09:27:59;;;;;;;11.68;7.25;;;6.90;99.90;;;;;;5064263;22;20697;-74
2022/11/30 09:30:26;;;;;;;12.80;8.10;;;6.90;99.90;;;;;;4990152;28;20211;-71
2022/11/30 09:32:54;;;;;;;13.23;7.65;;;7.00;99.90;;;;;;4988107;28;20199;-72
2022/11/30 09:35:21;;;;;;;12.90;7.82;;;7.10;99.90;;;;;;4990395;28;20225;-72
2022/11/30 09:37:48;;;;;;;13.10;7.63;;;7.20;99.90;;;;;;4991677;28;20220;-72
2022/11/30 09:40:15;;;;;;;13.20;8.35;;;7.30;99.90;;;;;;4990422;28;20213;-72
2022/11/30 09:42:51;;;;;;;10.73;7.15;;;7.30;99.90;;;;;;4991055;28;20674;-71
2022/11/30 09:45:22;;;;;;;15.85;7.97;;;7.30;99.90;;;;;;4990839;28;20239;-72
2022/11/30 09:48:07;;;;;;;13.80;7.63;;;7.30;99.90;;;;;;4991303;28;20237;-72
2022/11/30 09:50:38;;;;;;;11.30;6.93;;;7.30;99.90;;;;;;4990635;28;20203;-72
2022/11/30 09:53:10;;;;;;;13.93;7.97;;;7.10;99.90;;;;;;4991418;28;20200;-72
2022/11/30 09:55:41;;;;;;;10.80;6.95;;;7.10;99.90;;;;;;4991258;28;20219;-71
2022/11/30 09:58:21;;;;;;;12.50;7.60;;;7.00;99.90;;;;;;4990635;28;20572;-72
2022/11/30 10:00:48;;;;;;;12.93;7.68;;;7.00;99.90;;;;;;4990813;28;20207;-72
2022/11/30 10:03:18;;;;;;;10.57;7.10;;;6.90;99.90;;;;;;4990474;28;20204;-71
2022/11/30 10:05:47;;;;;;;11.75;7.05;;;6.90;99.90;;;;;;4991243;28;20225;-72
2022/11/30 10:08:42;;;;;;;11.57;7.15;;;6.90;99.90;;;;;;4990022;28;20211;-72
2022/11/30 10:11:23;;;;;;;8.82;6.57;;;6.90;99.90;;;;;;4990650;28;20574;-72
2022/11/30 10:14:02;;;;;;;9.98;6.55;;;7.00;99.90;;;;;;4992639;28;20212;-71
2022/11/30 10:16:39;;;;;;;11.15;6.88;;;7.10;99.90;;;;;;4994972;28;20224;-72
2022/11/30 10:19:16;;;;;;;10.30;6.72;;;7.20;99.90;;;;;;4994455;28;20667;-72
2022/11/30 10:21:56;;;;;;;9.60;7.05;;;7.20;99.90;;;;;;4993592;28;20223;-72
2022/11/30 10:24:37;;;;;;;9.95;6.70;;;7.30;99.90;;;;;;4993825;28;20238;-72
2022/11/30 10:27:16;;;;;;;10.77;5.90;;;7.30;99.90;;;;;;4994444;28;20200;-71
2022/11/30 10:29:43;;;;;;;11.93;7.57;;;7.40;99.90;;;;;;4993885;28;20269;-73
2022/11/30 10:32:14;;;;;;;10.45;7.05;;;7.40;99.90;;;;;;4992882;28;20204;-72
2022/11/30 10:34:43;;;;;;;11.65;7.55;;;7.40;99.90;;;;;;4993504;28;20224;-71
2022/11/30 10:37:17;;;;;;;17.17;8.40;;;7.40;99.90;;;;;;4993598;28;20226;-70
2022/11/30 10:39:56;;;;;;;10.65;7.70;;;7.40;99.90;;;;;;4993948;28;20204;-72
2022/11/30 10:42:29;;;;;;;14.20;7.75;;;7.30;99.90;;;;;;4993033;28;20223;-71
2022/11/30 10:45:00;;;;;;;12.57;7.50;;;7.20;99.90;;;;;;4993656;28;20231;-71
2022/11/30 10:47:32;;;;;;;11.30;7.20;;;7.20;99.90;;;;;;4992861;28;20206;-71
2022/11/30 10:50:01;;;;;;;11.25;7.70;;;7.20;99.90;;;;;;4993566;28;20250;-70
2022/11/30 10:52:30;;;;;;;11.40;7.78;;;7.00;99.90;;;;;;4991431;28;20207;-72
2022/11/30 10:54:58;;;;;;;12.40;7.68;;;6.90;99.90;;;;;;4989937;28;20247;-71
2022/11/30 10:57:30;;;;;;;9.80;6.40;;;6.90;99.90;;;;;;4992118;28;20269;-71
2022/11/30 10:59:59;;;;;;;12.27;6.90;;;6.90;99.90;;;;;;4993189;28;20299;-71
2022/11/30 11:02:40;;;;;;;11.32;7.80;;;6.80;99.90;;;;;;4992320;28;20212;-71
2022/11/30 11:05:20;;;;;;;12.25;7.13;;;6.80;99.90;;;;;;4993295;28;20224;-70
2022/11/30 11:07:55;;;;;;;9.55;6.57;;;6.90;99.90;;;;;;4990265;28;20399;-71
2022/11/30 11:10:27;;;;;;;11.50;5.70;;;6.90;99.90;;;;;;4992810;28;20207;-70
2022/11/30 11:12:55;;;;;;;11.25;7.55;;;6.80;99.90;;;;;;4993049;28;20202;-71
2022/11/30 11:15:24;;;;;;;12.23;6.90;;;6.80;99.90;;;;;;4992929;28;20224;-71
2022/11/30 11:17:52;;;;;;;11.98;7.40;;;6.80;99.90;;;;;;4992984;28;20323;-71
2022/11/30 11:20:33;;;;;;;10.00;7.32;;;6.80;99.90;;;;;;4992675;28;20583;-71
2022/11/30 11:23:01;;;;;;;10.88;6.43;;;6.80;99.90;;;;;;4992338;28;20215;-71
2022/11/30 11:25:33;;;;;;;10.48;6.35;;;6.80;99.90;;;;;;4992649;28;20705;-71
2022/11/30 11:28:07;;;;;;;10.48;6.38;;;6.80;99.90;;;;;;4992960;28;20262;-71
2022/11/30 11:30:35;;;;;;;11.90;6.75;;;6.70;99.90;;;;;;4991709;28;20294;-71
2022/11/30 11:33:04;;;;;;;9.30;6.03;;;6.70;99.90;;;;;;4992996;28;20207;-71
2022/11/30 11:35:36;;;;;;;9.85;6.70;;;6.70;99.90;;;;;;4992210;28;20223;-71
2022/11/30 11:38:05;;;;;;;8.75;6.68;;;6.70;99.90;;;;;;4992675;28;20223;-71
2022/11/30 11:40:31;;;;;;;7.25;4.63;;;6.80;99.90;;;;;;4993374;28;20632;-73
2022/11/30 11:43:02;;;;;;;10.27;6.15;;;6.80;99.90;;;;;;4993312;28;20208;-73
2022/11/30 11:45:35;;;;;;;11.25;5.75;;;6.90;99.90;;;;;;4992488;28;20789;-72
2022/11/30 11:48:04;;;;;;;9.32;5.75;;;6.90;99.90;;;;;;4992251;28;20779;-73
2022/11/30 11:50:34;;;;;;;8.40;6.03;;;7.00;99.90;;;;;;4991814;28;20209;-71
2022/11/30 11:53:23;;;;;;;8.50;6.38;;;7.00;99.90;;;;;;4992228;28;20215;-70
2022/11/30 11:55:53;;;;;;;7.25;5.30;;;7.00;99.90;;;;;;4992683;28;20255;-70
2022/11/30 11:58:32;;;;;;;7.35;5.70;;;7.00;99.90;;;;;;4992284;28;20233;-72
2022/11/30 12:01:04;;;;;;;7.60;5.68;;;7.00;99.90;;;;;;4991303;28;20570;-69
2022/11/30 12:03:38;;;;;;;8.80;5.70;;;7.00;99.90;;;;;;4989564;28;20210;-70
2022/11/30 12:06:13;;;;;;;8.23;5.82;;;7.00;99.90;;;;;;4989987;28;20772;-70
2022/11/30 12:08:46;;;;;;;8.90;5.05;;;7.10;99.90;;;;;;4990569;28;20591;-70
2022/11/30 12:11:18;;;;;;;9.52;6.00;;;7.10;99.90;;;;;;4988848;28;20204;-72
2022/11/30 12:13:47;;;;;;;8.20;5.85;;;7.00;99.90;;;;;;4990766;28;20242;-72
2022/11/30 12:16:35;;;;;;;10.60;5.63;;;7.00;99.90;;;;;;4991938;28;20579;-71
2022/11/30 12:19:12;;;;;;;8.52;6.28;;;7.00;99.90;;;;;;4991615;28;20203;-72
2022/11/30 12:21:53;;;;;;;7.82;4.97;;;7.00;99.90;;;;;;4990712;28;20205;-72
2022/11/30 12:24:34;;;;;;;10.30;6.63;;;7.00;99.90;;;;;;4991246;28;20212;-70
2022/11/30 12:27:10;;;;;;;7.13;5.07;;;6.90;99.90;;;;;;4991358;28;20311;-70
2022/11/30 12:29:47;;;;;;;7.65;5.63;;;7.00;99.90;;;;;;4991044;28;20230;-70
2022/11/30 12:32:25;;;;;;;10.55;6.38;;;7.00;99.90;;;;;;4990680;28;20213;-70
2022/11/30 12:35:05;;;;;;;10.00;6.40;;;7.00;99.90;;;;;;4990838;28;20236;-70
2022/11/30 12:37:44;;;;;;;9.80;5.65;;;7.00;99.90;;;;;;4990805;28;20234;-70
2022/11/30 12:40:26;;;;;;;7.72;4.90;;;7.00;99.90;;;;;;4991102;28;20204;-70
2022/11/30 12:43:01;;;;;;;8.05;5.07;;;7.00;99.90;;;;;;4991387;28;20675;-70
2022/11/30 12:45:34;;;;;;;10.48;5.45;;;7.00;99.90;;;;;;4991129;28;20229;-71
2022/11/30 12:48:08;;;;;;;8.82;5.60;;;7.00;99.90;;;;;;4990939;28;20284;-70
2022/11/30 12:50:47;;;;;;;6.22;4.55;;;7.10;99.90;;;;;;4990174;28;20218;-70
2022/11/30 12:53:23;;;;;;;9.55;6.07;;;7.10;99.90;;;;;;4991247;28;20655;-70
2022/11/30 12:56:00;;;;;;;9.73;6.35;;;7.10;99.90;;;;;;4990548;28;20281;-70
2022/11/30 12:58:34;;;;;;;8.68;5.47;;;7.10;99.90;;;;;;4991017;28;20227;-74
2022/11/30 13:01:14;;;;;;;9.00;5.85;;;7.10;99.90;;;;;;4989979;28;20203;-71
2022/11/30 13:03:56;;;;;;;9.60;6.45;;;7.10;99.90;;;;;;4990317;28;20204;-70
2022/11/30 13:06:29;;;;;;;7.57;5.55;;;7.00;99.90;;;;;;4990895;28;20231;-71
2022/11/30 13:09:02;;;;;;;6.78;5.10;;;7.00;99.90;;;;;;4991008;28;20260;-72
2022/11/30 13:11:33;;;;;;;8.27;6.03;;;6.90;99.90;;;;;;4989105;28;20208;-71